Time;durP1;ratioP1;P1;durP2;ratioP2;P2;SDS_P1;SDS_P2;PMS_P1;PMS_P2;Temp;Humidity;BMP_temperature;BMP_pressure;BME280_temperature;BME280_humidity;BME280_pressure;Samples;Min_cycle;Max_cycle;Signal;HPM_P1;HPM_P2
2023/05/27 00:01:37;;;;;;;1.57;1.43;;;21.00;90.00;;;;;;5110066;28;22073;-81
2023/05/27 00:04:06;;;;;;;1.52;0.80;;;21.00;90.20;;;;;;5104417;28;20204;-82
2023/05/27 00:06:35;;;;;;;1.70;1.17;;;20.90;90.50;;;;;;5109766;27;20217;-82
2023/05/27 00:09:03;;;;;;;1.93;1.07;;;20.90;90.30;;;;;;5106192;27;20545;-83
2023/05/27 00:11:32;;;;;;;0.80;0.77;;;20.90;90.10;;;;;;5102660;28;20191;-82
2023/05/27 00:14:01;;;;;;;1.50;0.93;;;20.90;90.10;;;;;;5105804;28;20185;-81
2023/05/27 00:16:31;;;;;;;2.58;1.35;;;20.90;90.00;;;;;;5099990;28;20641;-82
2023/05/27 00:19:01;;;;;;;2.75;1.23;;;20.90;90.00;;;;;;5114744;28;20188;-82
2023/05/27 00:21:30;;;;;;;3.53;1.65;;;20.90;89.80;;;;;;5105776;28;20201;-83
2023/05/27 00:23:58;;;;;;;4.07;1.37;;;20.80;89.90;;;;;;5114863;28;20204;-82
2023/05/27 00:26:27;;;;;;;1.20;0.77;;;20.80;89.90;;;;;;5107126;28;20225;-82
2023/05/27 00:28:55;;;;;;;1.40;1.00;;;20.80;89.90;;;;;;5109909;28;20193;-82
2023/05/27 00:31:25;;;;;;;1.80;0.98;;;20.80;89.90;;;;;;5120795;28;20204;-83
2023/05/27 00:33:53;;;;;;;0.90;0.80;;;20.80;90.10;;;;;;5113681;28;20715;-83
2023/05/27 00:36:23;;;;;;;1.33;1.10;;;20.80;90.20;;;;;;5114182;27;20532;-83
2023/05/27 00:38:51;;;;;;;1.77;0.93;;;20.80;90.30;;;;;;5115124;27;20184;-82
2023/05/27 00:41:20;;;;;;;2.60;1.07;;;20.70;90.30;;;;;;5113759;27;20252;-83
2023/05/27 00:43:51;;;;;;;4.80;1.20;;;20.70;90.40;;;;;;5110746;27;20192;-83
2023/05/27 00:46:20;;;;;;;1.80;1.20;;;20.70;90.30;;;;;;5112623;27;20208;-82
2023/05/27 00:48:49;;;;;;;3.03;2.00;;;20.70;90.40;;;;;;5115671;27;20262;-83
2023/05/27 00:51:18;;;;;;;2.50;1.13;;;20.70;90.40;;;;;;5111286;27;20726;-84
2023/05/27 00:53:48;;;;;;;3.20;1.87;;;20.60;90.40;;;;;;5115111;27;20211;-82
2023/05/27 00:56:17;;;;;;;1.40;1.17;;;20.60;90.70;;;;;;5114613;27;20664;-83
2023/05/27 00:58:46;;;;;;;1.10;0.70;;;20.60;90.80;;;;;;5120269;27;20189;-83
2023/05/27 01:01:15;;;;;;;1.50;1.17;;;20.60;90.70;;;;;;5107137;27;20276;-82
2023/05/27 01:03:43;;;;;;;0.83;0.80;;;20.60;90.90;;;;;;5119102;27;20225;-83
2023/05/27 01:06:22;;;;;;;2.53;1.67;;;20.50;90.70;;;;;;5110777;27;20248;-82
2023/05/27 01:09:00;;;;;;;2.73;1.70;;;20.60;90.90;;;;;;5113624;27;20191;-81
2023/05/27 01:11:38;;;;;;;2.70;1.37;;;20.50;90.90;;;;;;5118446;27;20650;-83
2023/05/27 01:14:12;;;;;;;2.30;1.73;;;20.50;91.00;;;;;;5117117;28;20546;-83
2023/05/27 01:16:45;;;;;;;2.33;1.20;;;20.50;91.10;;;;;;5115049;27;20188;-84
2023/05/27 01:19:18;;;;;;;2.37;1.13;;;20.50;90.90;;;;;;5115856;27;20186;-82
2023/05/27 01:21:50;;;;;;;2.87;1.87;;;20.50;90.90;;;;;;5112455;27;20541;-83
2023/05/27 01:24:21;;;;;;;6.37;1.90;;;20.50;91.00;;;;;;5109969;27;20201;-83
2023/05/27 01:26:50;;;;;;;2.40;1.60;;;20.50;91.20;;;;;;5118023;27;20223;-83
2023/05/27 01:29:18;;;;;;;2.73;1.43;;;20.50;91.00;;;;;;5123530;27;20245;-84
2023/05/27 01:31:56;;;;;;;1.80;1.07;;;20.40;90.90;;;;;;5110957;27;20189;-84
2023/05/27 01:34:33;;;;;;;1.47;1.10;;;20.50;91.10;;;;;;5107384;27;20199;-84
2023/05/27 01:37:06;;;;;;;2.33;1.93;;;20.50;91.00;;;;;;5125687;27;20224;-84
2023/05/27 01:39:38;;;;;;;2.07;1.10;;;20.40;90.90;;;;;;5102420;27;20202;-83
2023/05/27 01:42:07;;;;;;;1.53;1.33;;;20.40;91.00;;;;;;5105599;27;20192;-83
2023/05/27 01:44:36;;;;;;;2.95;2.08;;;20.40;91.20;;;;;;5123296;27;20641;-83
2023/05/27 01:47:05;;;;;;;1.98;1.30;;;20.40;91.20;;;;;;5115464;27;20220;-84
2023/05/27 01:49:35;;;;;;;1.97;1.43;;;20.40;91.00;;;;;;5092415;28;20684;-83
2023/05/27 01:52:03;;;;;;;2.97;1.10;;;20.40;91.00;;;;;;5116861;27;20245;-83
2023/05/27 01:54:32;;;;;;;0.90;0.80;;;20.40;91.00;;;;;;5118882;27;20197;-83
2023/05/27 01:57:02;;;;;;;1.57;1.00;;;20.40;91.10;;;;;;5112003;28;20676;-82
2023/05/27 01:59:31;;;;;;;3.27;1.57;;;20.40;91.00;;;;;;5127440;27;20189;-83
2023/05/27 02:01:59;;;;;;;1.80;1.30;;;20.40;91.10;;;;;;5120019;27;22388;-83
2023/05/27 02:04:27;;;;;;;1.50;1.03;;;20.40;91.00;;;;;;5103094;28;20196;-81
2023/05/27 02:06:56;;;;;;;2.90;1.03;;;20.40;90.90;;;;;;5126554;27;20227;-83
2023/05/27 02:09:25;;;;;;;1.50;1.00;;;20.40;90.90;;;;;;5109871;27;20646;-83
2023/05/27 02:11:53;;;;;;;2.30;1.33;;;20.40;90.90;;;;;;5105076;27;20200;-84
2023/05/27 02:14:24;;;;;;;3.20;1.63;;;20.50;90.90;;;;;;5113915;27;20212;-82
2023/05/27 02:16:54;;;;;;;1.27;0.90;;;20.50;90.90;;;;;;5110130;27;20196;-83
2023/05/27 02:19:24;;;;;;;2.63;1.10;;;20.50;90.90;;;;;;5116797;28;20197;-83
2023/05/27 02:21:53;;;;;;;3.60;1.93;;;20.50;91.10;;;;;;5103568;27;20279;-83
2023/05/27 02:24:21;;;;;;;1.93;1.10;;;20.50;91.00;;;;;;5110934;27;20193;-83
2023/05/27 02:26:49;;;;;;;2.23;1.40;;;20.50;91.00;;;;;;5104189;27;20233;-83
2023/05/27 02:29:18;;;;;;;1.27;1.10;;;20.40;90.90;;;;;;5112346;27;20195;-80
2023/05/27 02:31:47;;;;;;;2.77;1.50;;;20.40;91.00;;;;;;5102301;27;20194;-83
2023/05/27 02:34:16;;;;;;;3.90;1.60;;;20.40;91.00;;;;;;5117235;27;20204;-83
2023/05/27 02:36:44;;;;;;;3.23;1.30;;;20.40;90.90;;;;;;5107549;27;20194;-83
2023/05/27 02:39:13;;;;;;;3.07;1.73;;;20.40;90.90;;;;;;5107661;27;20675;-82
2023/05/27 02:41:42;;;;;;;8.10;1.40;;;20.40;90.90;;;;;;5102304;27;20189;-82
2023/05/27 02:44:11;;;;;;;0.93;0.83;;;20.40;90.90;;;;;;5114297;27;20207;-83
2023/05/27 02:46:40;;;;;;;2.10;0.93;;;20.50;90.80;;;;;;5106771;27;20194;-82
2023/05/27 02:49:11;;;;;;;2.90;1.73;;;20.40;90.70;;;;;;5111487;27;20190;-83
2023/05/27 02:51:40;;;;;;;3.90;2.20;;;20.40;91.00;;;;;;5106715;27;20196;-81
2023/05/27 02:54:09;;;;;;;2.67;1.83;;;20.40;91.00;;;;;;5116550;27;20246;-83
2023/05/27 02:56:39;;;;;;;3.17;1.97;;;20.40;90.90;;;;;;5108672;27;20193;-83
2023/05/27 02:59:09;;;;;;;2.33;1.83;;;20.40;90.80;;;;;;5103763;27;20680;-84
2023/05/27 03:01:38;;;;;;;3.50;2.13;;;20.40;90.90;;;;;;5104481;27;20197;-83
2023/05/27 03:04:07;;;;;;;2.77;1.90;;;20.40;90.80;;;;;;5105467;27;20630;-82
2023/05/27 03:06:37;;;;;;;1.30;1.10;;;20.40;90.70;;;;;;5108726;27;20196;-82
2023/05/27 03:09:07;;;;;;;1.77;1.30;;;20.40;90.70;;;;;;5110440;27;20622;-82
2023/05/27 03:11:35;;;;;;;1.47;1.17;;;20.30;90.80;;;;;;5109619;28;20205;-82
2023/05/27 03:14:04;;;;;;;3.10;1.20;;;20.30;90.80;;;;;;5115134;27;20195;-82
2023/05/27 03:16:32;;;;;;;1.47;0.90;;;20.30;90.70;;;;;;5113750;27;20186;-82
2023/05/27 03:19:02;;;;;;;1.23;1.03;;;20.30;90.70;;;;;;5112273;27;20283;-82
2023/05/27 03:21:31;;;;;;;1.63;1.10;;;20.40;90.70;;;;;;5107758;27;20202;-83
2023/05/27 03:24:02;;;;;;;2.50;0.87;;;20.40;90.70;;;;;;5111335;27;20193;-82
2023/05/27 03:26:30;;;;;;;1.30;1.13;;;20.30;90.60;;;;;;5103278;27;20196;-82
2023/05/27 03:28:59;;;;;;;4.50;1.47;;;20.30;90.60;;;;;;5103299;27;20284;-81
2023/05/27 03:31:29;;;;;;;1.63;1.53;;;20.30;90.70;;;;;;5115766;27;20308;-83
2023/05/27 03:33:58;;;;;;;1.10;0.93;;;20.30;90.60;;;;;;5107712;27;20698;-84
2023/05/27 03:36:26;;;;;;;1.50;0.73;;;20.30;90.50;;;;;;5107597;27;20284;-84
2023/05/27 03:38:55;;;;;;;2.57;1.60;;;20.40;90.60;;;;;;5113798;27;20189;-82
2023/05/27 03:41:25;;;;;;;4.37;2.03;;;20.30;90.50;;;;;;5115122;27;20275;-84
2023/05/27 03:43:53;;;;;;;2.67;1.90;;;20.40;90.50;;;;;;5112181;27;20196;-80
2023/05/27 03:46:21;;;;;;;1.83;1.17;;;20.30;90.40;;;;;;5109611;27;20192;-83
2023/05/27 03:48:50;;;;;;;2.10;1.33;;;20.40;90.40;;;;;;5101287;27;20243;-82
2023/05/27 03:51:19;;;;;;;3.20;1.70;;;20.40;90.70;;;;;;5111309;27;20197;-81
2023/05/27 03:53:47;;;;;;;1.10;0.90;;;20.40;90.30;;;;;;5107802;27;20192;-80
2023/05/27 03:56:16;;;;;;;5.65;2.20;;;20.40;90.30;;;;;;5112282;27;20196;-83
2023/05/27 03:58:46;;;;;;;2.67;1.45;;;20.40;90.30;;;;;;5104547;27;20193;-82
2023/05/27 04:01:16;;;;;;;2.13;1.57;;;20.40;90.30;;;;;;5106911;28;20179;-83
2023/05/27 04:03:46;;;;;;;1.20;1.10;;;20.50;90.20;;;;;;5120094;27;20201;-83
2023/05/27 04:06:16;;;;;;;1.73;0.97;;;20.50;90.20;;;;;;5111196;27;20652;-84
2023/05/27 04:08:46;;;;;;;2.90;1.00;;;20.60;90.20;;;;;;5113803;27;20245;-83
2023/05/27 04:11:17;;;;;;;2.85;1.15;;;20.60;90.10;;;;;;5101307;28;20647;-82
2023/05/27 04:13:48;;;;;;;1.67;1.00;;;20.60;90.10;;;;;;5109753;28;20190;-83
2023/05/27 04:16:17;;;;;;;3.93;1.27;;;20.70;90.00;;;;;;5097986;28;20197;-82
2023/05/27 04:18:50;;;;;;;2.47;1.30;;;20.70;90.00;;;;;;5115016;28;20220;-84
2023/05/27 04:21:20;;;;;;;3.50;1.23;;;20.80;90.00;;;;;;5111460;28;20214;-83
2023/05/27 04:23:49;;;;;;;2.00;1.23;;;20.80;90.00;;;;;;5103075;28;20274;-83
2023/05/27 04:26:18;;;;;;;2.13;1.40;;;20.90;89.80;;;;;;5110735;28;20208;-81
2023/05/27 04:28:48;;;;;;;2.78;1.38;;;20.90;89.70;;;;;;5112375;28;21150;-82
2023/05/27 04:31:16;;;;;;;1.67;0.90;;;20.90;89.40;;;;;;5108499;28;20214;-82
2023/05/27 04:33:45;;;;;;;2.83;1.10;;;21.00;89.30;;;;;;5109262;28;20198;-84
2023/05/27 04:36:17;;;;;;;8.02;1.83;;;21.10;89.10;;;;;;5121494;28;20192;-82
2023/05/27 04:38:46;;;;;;;1.08;0.88;;;21.10;88.60;;;;;;5117716;28;20188;-83
2023/05/27 04:41:14;;;;;;;1.90;1.58;;;21.10;88.50;;;;;;5118238;28;20192;-84
2023/05/27 04:43:43;;;;;;;0.85;0.75;;;21.20;88.50;;;;;;5117770;27;20188;-84
2023/05/27 04:46:14;;;;;;;2.58;1.05;;;21.20;88.50;;;;;;5112563;27;20200;-83
2023/05/27 04:48:44;;;;;;;3.67;1.40;;;21.20;88.20;;;;;;5126957;28;20200;-84
2023/05/27 04:51:15;;;;;;;3.75;1.23;;;21.30;88.10;;;;;;5116523;28;20661;-84
2023/05/27 04:53:44;;;;;;;1.50;1.20;;;21.30;87.90;;;;;;5119318;28;20217;-83
2023/05/27 04:56:14;;;;;;;4.82;2.28;;;21.30;87.70;;;;;;5126947;28;20276;-84
2023/05/27 04:58:46;;;;;;;1.52;1.05;;;21.40;87.70;;;;;;5112321;27;20627;-82
2023/05/27 05:01:20;;;;;;;1.40;0.90;;;21.40;87.70;;;;;;5111457;28;20204;-83
2023/05/27 05:04:02;;;;;;;5.68;1.77;;;21.40;87.70;;;;;;5114543;28;20187;-84
2023/05/27 05:06:31;;;;;;;5.18;1.45;;;21.40;88.00;;;;;;5111835;28;20622;-85
2023/05/27 05:08:59;;;;;;;2.25;1.25;;;21.40;88.00;;;;;;5120072;28;20248;-84
2023/05/27 05:11:28;;;;;;;2.33;1.58;;;21.40;87.90;;;;;;5115106;28;20264;-84
2023/05/27 05:13:57;;;;;;;3.03;1.30;;;21.40;87.90;;;;;;5119916;27;20234;-83
2023/05/27 05:16:29;;;;;;;2.30;1.67;;;21.40;87.70;;;;;;5112064;28;20186;-83
2023/05/27 05:18:58;;;;;;;2.25;1.33;;;21.40;87.80;;;;;;5117037;27;20197;-84
2023/05/27 05:21:27;;;;;;;2.92;1.35;;;21.40;87.70;;;;;;5125380;27;20196;-84
2023/05/27 05:23:56;;;;;;;4.05;1.55;;;21.50;87.70;;;;;;5114197;27;20293;-84
2023/05/27 05:26:25;;;;;;;2.00;1.75;;;21.50;87.70;;;;;;5113703;27;20272;-85
2023/05/27 05:28:54;;;;;;;4.05;2.55;;;21.50;87.70;;;;;;5115650;27;20214;-82
2023/05/27 05:31:23;;;;;;;2.17;1.63;;;21.60;87.70;;;;;;5110361;27;20192;-83
2023/05/27 05:33:53;;;;;;;3.05;1.80;;;21.60;87.60;;;;;;5119953;27;20532;-86
2023/05/27 05:36:22;;;;;;;2.45;1.52;;;21.70;87.50;;;;;;5105639;27;20220;-84
2023/05/27 05:38:51;;;;;;;1.42;1.25;;;21.70;87.40;;;;;;5108417;27;20221;-82
2023/05/27 05:41:19;;;;;;;2.10;1.20;;;21.70;87.20;;;;;;5106472;27;20196;-83
2023/05/27 05:43:48;;;;;;;3.10;1.15;;;21.80;87.20;;;;;;5108252;27;20552;-82
2023/05/27 05:46:16;;;;;;;2.53;1.20;;;21.80;87.10;;;;;;5105866;27;20199;-82
2023/05/27 05:48:44;;;;;;;3.22;1.70;;;21.80;87.00;;;;;;5109929;27;20239;-83
2023/05/27 05:51:14;;;;;;;6.30;1.52;;;21.90;86.80;;;;;;5109137;27;20194;-82
2023/05/27 05:53:43;;;;;;;1.48;1.17;;;21.90;86.80;;;;;;5111146;27;20197;-83
2023/05/27 05:56:12;;;;;;;1.67;1.35;;;21.90;86.50;;;;;;5099491;27;20571;-85
2023/05/27 05:58:41;;;;;;;2.47;1.73;;;22.00;86.50;;;;;;5106328;27;20738;-83
2023/05/27 06:01:10;;;;;;;2.88;1.60;;;22.00;86.50;;;;;;5105162;27;20210;-84
2023/05/27 06:03:38;;;;;;;4.22;1.92;;;22.10;86.30;;;;;;5106046;27;20200;-83
2023/05/27 06:06:08;;;;;;;2.42;1.77;;;22.10;86.10;;;;;;5103659;28;20197;-84
2023/05/27 06:08:38;;;;;;;5.03;2.25;;;22.20;85.90;;;;;;5111741;27;20572;-83
2023/05/27 06:11:07;;;;;;;2.47;1.42;;;22.20;85.80;;;;;;5101321;27;20190;-82
2023/05/27 06:13:35;;;;;;;3.85;2.30;;;22.30;85.60;;;;;;5119308;27;20195;-84
2023/05/27 06:16:04;;;;;;;2.60;1.52;;;22.30;85.50;;;;;;5111726;27;20212;-83
2023/05/27 06:18:33;;;;;;;3.85;1.67;;;22.40;85.10;;;;;;5102216;27;20182;-83
2023/05/27 06:21:01;;;;;;;2.75;1.77;;;22.40;85.00;;;;;;5111847;27;20197;-83
2023/05/27 06:23:30;;;;;;;3.67;1.80;;;22.50;85.00;;;;;;5111130;27;20228;-85
2023/05/27 06:25:59;;;;;;;3.35;1.95;;;22.50;84.80;;;;;;5119375;27;20201;-85
2023/05/27 06:28:28;;;;;;;3.30;1.92;;;22.60;84.70;;;;;;5118479;27;20188;-85
2023/05/27 06:30:59;;;;;;;4.47;1.73;;;22.70;84.70;;;;;;5111189;27;20193;-84
2023/05/27 06:33:28;;;;;;;3.83;2.13;;;22.80;84.30;;;;;;5121532;27;20196;-85
2023/05/27 06:35:56;;;;;;;2.85;1.77;;;22.80;84.20;;;;;;5119073;27;20214;-84
2023/05/27 06:38:25;;;;;;;5.95;2.22;;;22.90;84.10;;;;;;5113062;27;20202;-86
2023/05/27 06:40:53;;;;;;;3.22;1.55;;;22.90;83.90;;;;;;5112102;27;20193;-84
2023/05/27 06:43:23;;;;;;;3.95;1.85;;;23.00;83.70;;;;;;5103431;28;20189;-84
2023/05/27 06:45:51;;;;;;;3.03;1.95;;;23.00;83.20;;;;;;5107275;28;20221;-85
2023/05/27 06:48:32;;;;;;;3.42;1.83;;;23.10;83.00;;;;;;5103227;27;20250;-85
2023/05/27 06:51:02;;;;;;;2.92;1.33;;;23.20;82.50;;;;;;5113060;27;20211;-83
2023/05/27 06:53:31;;;;;;;2.75;2.10;;;23.30;82.30;;;;;;5104716;27;20312;-85
2023/05/27 06:55:59;;;;;;;11.63;2.38;;;23.30;81.50;;;;;;5101503;27;20238;-83
2023/05/27 06:58:30;;;;;;;3.00;1.90;;;23.40;81.30;;;;;;5106803;27;20283;-84
2023/05/27 07:00:58;;;;;;;3.08;2.00;;;23.50;81.30;;;;;;5107556;27;20284;-84
2023/05/27 07:03:27;;;;;;;2.33;1.88;;;23.50;79.90;;;;;;5115122;27;20280;-87
2023/05/27 07:05:56;;;;;;;5.28;2.13;;;23.50;80.00;;;;;;5120240;27;20184;-83
2023/05/27 07:08:25;;;;;;;2.10;1.27;;;23.60;79.30;;;;;;5118806;27;20189;-84
2023/05/27 07:10:54;;;;;;;4.65;2.15;;;23.60;79.40;;;;;;5115301;27;20249;-85
2023/05/27 07:13:22;;;;;;;5.82;2.30;;;23.70;79.50;;;;;;5117877;27;20217;-84
2023/05/27 07:15:52;;;;;;;2.88;1.48;;;23.80;79.40;;;;;;5099254;28;20197;-84
2023/05/27 07:18:24;;;;;;;5.53;1.98;;;23.90;79.60;;;;;;5113708;27;20205;-85
2023/05/27 07:20:52;;;;;;;9.27;2.25;;;24.00;79.10;;;;;;5105745;27;20190;-84
2023/05/27 07:23:21;;;;;;;5.05;2.95;;;24.10;79.20;;;;;;5108923;27;20221;-89
2023/05/27 07:25:50;;;;;;;5.28;2.60;;;24.10;78.60;;;;;;5117950;27;20226;-86
2023/05/27 07:28:22;;;;;;;5.38;2.70;;;24.10;77.10;;;;;;5113163;27;20188;-85
2023/05/27 07:30:52;;;;;;;3.72;2.05;;;24.10;77.00;;;;;;5117434;27;20712;-85
2023/05/27 07:33:21;;;;;;;2.85;1.65;;;24.00;76.90;;;;;;5118564;27;20193;-85
2023/05/27 07:35:50;;;;;;;3.22;2.13;;;24.10;77.10;;;;;;5122423;27;20259;-84
2023/05/27 07:38:18;;;;;;;5.65;2.55;;;24.00;77.30;;;;;;5119961;27;20192;-84
2023/05/27 07:40:47;;;;;;;3.38;1.52;;;24.10;77.50;;;;;;5114387;27;20195;-85
2023/05/27 07:43:18;;;;;;;1.75;1.30;;;24.10;77.60;;;;;;5125974;27;20188;-84
2023/05/27 07:45:47;;;;;;;5.13;2.35;;;24.10;77.80;;;;;;5121729;27;20220;-85
2023/05/27 07:48:17;;;;;;;3.08;1.52;;;24.10;78.00;;;;;;5116074;27;20204;-83
2023/05/27 07:50:46;;;;;;;4.82;1.77;;;24.20;78.20;;;;;;5133653;27;20238;-85
2023/05/27 07:53:14;;;;;;;6.53;1.85;;;24.20;78.20;;;;;;5122238;27;20200;-83
2023/05/27 07:55:43;;;;;;;3.33;2.00;;;24.30;77.90;;;;;;5104879;28;20189;-85
2023/05/27 07:58:12;;;;;;;1.98;1.30;;;24.30;77.50;;;;;;5122563;27;20197;-84
2023/05/27 08:00:41;;;;;;;3.58;2.00;;;24.40;76.70;;;;;;5113525;27;20193;-84
2023/05/27 08:03:09;;;;;;;2.60;1.75;;;24.50;76.90;;;;;;5115015;27;20204;-86
2023/05/27 08:05:40;;;;;;;2.90;1.63;;;24.60;76.40;;;;;;5109831;28;22330;-83
2023/05/27 08:08:09;;;;;;;4.00;2.33;;;24.70;76.30;;;;;;5125987;27;20196;-84
2023/05/27 08:10:38;;;;;;;2.22;1.38;;;24.80;76.10;;;;;;5111487;28;20228;-85
2023/05/27 08:13:07;;;;;;;3.70;2.33;;;24.90;75.90;;;;;;5124032;27;20213;-84
2023/05/27 08:15:36;;;;;;;3.67;2.00;;;25.00;75.40;;;;;;5117922;28;20653;-86
2023/05/27 08:18:05;;;;;;;1.83;1.10;;;25.10;75.40;;;;;;5122464;27;20211;-85
2023/05/27 08:20:33;;;;;;;3.55;1.80;;;25.10;75.00;;;;;;5115627;28;20198;-84
2023/05/27 08:23:03;;;;;;;2.50;1.35;;;25.20;74.10;;;;;;5122170;27;20280;-86
2023/05/27 08:25:32;;;;;;;6.47;1.92;;;25.20;71.60;;;;;;5114496;28;20200;-85
2023/05/27 08:28:04;;;;;;;3.65;1.40;;;25.30;71.70;;;;;;5113123;28;20203;-87
2023/05/27 08:30:34;;;;;;;5.00;1.50;;;25.30;71.00;;;;;;5103782;28;20726;-88
2023/05/27 08:33:02;;;;;;;6.45;2.35;;;25.40;71.30;;;;;;5122838;27;20208;-86
2023/05/27 08:35:31;;;;;;;4.30;1.95;;;25.40;71.50;;;;;;5110825;28;20241;-86
2023/05/27 08:38:00;;;;;;;2.80;1.65;;;25.50;71.60;;;;;;5108354;28;20586;-86
2023/05/27 08:40:30;;;;;;;2.35;1.55;;;25.60;71.90;;;;;;5122276;28;20279;-88
2023/05/27 08:42:59;;;;;;;2.10;1.60;;;25.60;71.30;;;;;;5116546;28;20226;-87
2023/05/27 08:45:28;;;;;;;9.07;1.92;;;25.60;69.90;;;;;;5116836;28;20210;-88
2023/05/27 08:47:58;;;;;;;5.10;2.22;;;25.70;69.70;;;;;;5111853;28;20197;-87
2023/05/27 08:50:26;;;;;;;3.60;2.08;;;25.70;68.70;;;;;;5115589;28;20217;-87
2023/05/27 08:52:56;;;;;;;6.43;1.77;;;25.80;69.10;;;;;;5114886;27;20200;-87
2023/05/27 08:55:26;;;;;;;2.53;1.42;;;25.90;68.00;;;;;;5130601;27;20196;-86
2023/05/27 08:57:58;;;;;;;1.95;1.20;;;25.90;67.60;;;;;;5128144;27;20204;-87
2023/05/27 09:00:29;;;;;;;3.53;2.10;;;25.90;67.20;;;;;;5112906;27;20224;-86
2023/05/27 09:02:59;;;;;;;2.17;1.50;;;26.00;67.60;;;;;;5122089;27;21232;-87
2023/05/27 09:05:28;;;;;;;3.00;1.58;;;26.10;67.30;;;;;;5107101;27;20243;-86
2023/05/27 09:07:56;;;;;;;4.05;2.15;;;26.10;67.00;;;;;;5125901;27;20197;-85
2023/05/27 09:10:35;;;;;;;2.28;1.38;;;26.20;67.60;;;;;;5105335;27;20197;-86
2023/05/27 09:13:06;;;;;;;4.80;1.80;;;26.20;66.90;;;;;;5113759;27;20208;-87
2023/05/27 09:15:35;;;;;;;3.03;1.58;;;26.20;66.90;;;;;;5113366;27;20278;-84
2023/05/27 09:18:05;;;;;;;4.05;1.85;;;26.30;66.70;;;;;;5120308;27;20221;-88
2023/05/27 09:20:34;;;;;;;3.05;1.33;;;26.30;65.90;;;;;;5120468;27;20204;-87
2023/05/27 09:23:04;;;;;;;3.83;2.10;;;26.30;65.90;;;;;;5129963;27;20269;-88
2023/05/27 09:25:34;;;;;;;3.17;2.00;;;26.30;65.90;;;;;;5100295;28;20189;-87
2023/05/27 09:28:08;;;;;;;4.00;1.50;;;26.30;65.50;;;;;;5117509;28;21745;-86
2023/05/27 09:30:37;;;;;;;2.95;1.77;;;26.40;65.60;;;;;;5114253;27;20204;-88
2023/05/27 09:33:07;;;;;;;3.33;1.73;;;26.40;65.30;;;;;;5127460;27;20520;-87
2023/05/27 09:35:40;;;;;;;2.85;1.50;;;26.40;65.00;;;;;;5119445;27;20193;-92
2023/05/27 09:38:10;;;;;;;3.20;1.60;;;26.50;64.80;;;;;;5110074;27;20207;-91
2023/05/27 09:40:40;;;;;;;4.25;1.55;;;26.50;64.90;;;;;;5106733;27;20201;-89
2023/05/27 09:43:15;;;;;;;3.15;1.85;;;26.50;64.40;;;;;;5114498;28;20203;-91
2023/05/27 09:45:45;;;;;;;3.45;1.55;;;26.50;64.00;;;;;;5109212;28;20196;-86
2023/05/27 09:48:21;;;;;;;3.50;2.13;;;26.50;64.20;;;;;;5111511;27;20680;-88
2023/05/27 09:50:52;;;;;;;2.70;1.77;;;26.60;63.60;;;;;;5103824;28;20221;-89
2023/05/27 09:53:24;;;;;;;1.90;1.60;;;26.70;63.60;;;;;;5112543;27;20191;-87
2023/05/27 09:55:55;;;;;;;4.03;2.17;;;26.70;63.40;;;;;;5125808;27;20191;-88
2023/05/27 09:58:26;;;;;;;3.05;1.60;;;26.80;63.80;;;;;;5110920;28;20210;-89
2023/05/27 10:00:58;;;;;;;3.00;1.73;;;26.80;63.50;;;;;;5103930;28;20200;-86
2023/05/27 10:03:28;;;;;;;6.05;2.50;;;26.80;62.50;;;;;;5124678;27;20189;-89
2023/05/27 10:05:57;;;;;;;3.50;1.67;;;26.90;62.50;;;;;;5123393;27;20184;-86
2023/05/27 10:08:26;;;;;;;3.40;1.73;;;26.90;62.90;;;;;;5127192;27;20559;-87
2023/05/27 10:10:55;;;;;;;2.15;1.30;;;27.00;62.80;;;;;;5116065;27;20208;-88
2023/05/27 10:13:28;;;;;;;2.35;1.40;;;27.00;62.50;;;;;;5117893;27;20192;-89
2023/05/27 10:15:57;;;;;;;4.03;1.70;;;27.10;62.50;;;;;;5127312;27;20642;-88
2023/05/27 10:18:29;;;;;;;4.40;2.05;;;27.10;62.70;;;;;;5113152;27;20604;-90
2023/05/27 10:20:59;;;;;;;3.63;2.22;;;27.20;61.70;;;;;;5109505;28;20221;-89
2023/05/27 10:23:30;;;;;;;4.63;2.15;;;27.20;61.90;;;;;;5121875;27;20227;-89
2023/05/27 10:26:05;;;;;;;3.45;2.00;;;27.30;61.60;;;;;;5112106;27;20558;-87
2023/05/27 10:28:39;;;;;;;3.60;1.73;;;27.30;61.40;;;;;;5117585;28;20276;-89
2023/05/27 10:31:09;;;;;;;2.92;1.63;;;27.40;62.40;;;;;;5106139;27;20210;-86
2023/05/27 10:33:39;;;;;;;3.17;2.13;;;27.40;60.70;;;;;;5110017;27;20185;-88
2023/05/27 10:36:09;;;;;;;3.67;1.88;;;27.40;60.80;;;;;;5104648;27;20325;-84
2023/05/27 10:38:38;;;;;;;4.20;1.92;;;27.40;60.40;;;;;;5106081;27;20189;-85
2023/05/27 10:41:08;;;;;;;6.55;1.85;;;27.40;60.40;;;;;;5117966;27;20185;-84
2023/05/27 10:43:41;;;;;;;3.42;2.25;;;27.50;60.10;;;;;;5113673;27;20204;-88
2023/05/27 10:46:13;;;;;;;2.67;1.58;;;27.60;60.50;;;;;;5111737;27;20288;-88
2023/05/27 10:48:41;;;;;;;3.33;1.63;;;27.60;60.40;;;;;;5116572;27;20771;-83
2023/05/27 10:51:10;;;;;;;2.95;2.08;;;27.70;60.50;;;;;;5125998;27;20270;-87
2023/05/27 10:53:39;;;;;;;2.33;1.92;;;27.80;60.30;;;;;;5112053;27;20194;-87
2023/05/27 10:56:08;;;;;;;1.90;1.42;;;27.90;60.70;;;;;;5105483;27;20197;-86
2023/05/27 10:58:39;;;;;;;2.22;1.58;;;27.90;60.70;;;;;;5125857;27;20300;-84
2023/05/27 11:01:11;;;;;;;2.33;1.63;;;28.00;60.60;;;;;;5114310;27;20220;-82
2023/05/27 11:03:44;;;;;;;3.03;1.63;;;28.00;60.40;;;;;;5109498;27;20189;-82
2023/05/27 11:06:15;;;;;;;5.13;2.15;;;28.10;59.60;;;;;;5150010;27;20195;-85
2023/05/27 11:08:44;;;;;;;3.75;2.03;;;28.20;59.80;;;;;;5120679;27;20634;-87
2023/05/27 11:11:14;;;;;;;3.47;2.05;;;28.20;59.40;;;;;;5112459;27;20196;-87
2023/05/27 11:13:47;;;;;;;2.67;1.55;;;28.20;59.10;;;;;;5109181;28;20165;-87
2023/05/27 11:16:17;;;;;;;2.95;1.73;;;28.30;59.20;;;;;;5116959;27;20192;-87
2023/05/27 11:18:47;;;;;;;3.00;1.75;;;28.30;59.20;;;;;;5110346;28;20193;-85
2023/05/27 11:21:17;;;;;;;3.40;1.77;;;28.40;58.90;;;;;;5112766;28;20649;-85
2023/05/27 11:23:48;;;;;;;3.47;1.67;;;28.40;58.40;;;;;;5111615;27;20278;-87
2023/05/27 11:26:18;;;;;;;2.80;2.00;;;28.50;57.90;;;;;;5112707;27;20556;-88
2023/05/27 11:28:50;;;;;;;5.07;1.73;;;28.50;58.10;;;;;;5113467;27;20194;-87
2023/05/27 11:31:20;;;;;;;2.13;1.35;;;28.50;58.20;;;;;;5111955;27;20201;-85
2023/05/27 11:33:52;;;;;;;4.10;2.40;;;28.60;58.50;;;;;;5114027;27;20233;-88
2023/05/27 11:36:21;;;;;;;2.10;1.50;;;28.70;58.50;;;;;;5127280;27;20248;-88
2023/05/27 11:38:52;;;;;;;2.95;1.73;;;28.70;58.80;;;;;;5106666;27;20264;-87
2023/05/27 11:41:22;;;;;;;2.83;1.58;;;28.70;58.70;;;;;;5106434;28;20189;-87
2023/05/27 11:43:56;;;;;;;2.05;1.42;;;28.60;58.50;;;;;;5106450;27;20197;-81
2023/05/27 11:46:25;;;;;;;3.38;1.65;;;28.60;58.50;;;;;;5117057;27;20284;-84
2023/05/27 11:48:54;;;;;;;2.50;1.70;;;28.50;58.40;;;;;;5117438;27;20275;-84
2023/05/27 11:51:29;;;;;;;3.05;1.52;;;28.40;58.20;;;;;;5116713;27;20192;-83
2023/05/27 11:54:00;;;;;;;6.47;2.17;;;28.20;65.20;;;;;;5108410;27;20204;-84
2023/05/27 11:56:29;;;;;;;3.05;1.77;;;27.90;67.90;;;;;;5098883;27;20629;-84
2023/05/27 11:59:00;;;;;;;2.30;1.40;;;27.50;68.40;;;;;;5119190;27;20215;-86
2023/05/27 12:01:29;;;;;;;2.80;1.35;;;27.30;68.00;;;;;;5108910;27;20189;-85
2023/05/27 12:03:57;;;;;;;2.65;1.55;;;27.10;68.40;;;;;;5107246;27;20617;-85
2023/05/27 12:06:26;;;;;;;2.08;1.42;;;26.80;68.50;;;;;;5111946;27;20192;-85
2023/05/27 12:08:55;;;;;;;2.00;1.02;;;26.60;69.30;;;;;;5100585;27;20193;-84
2023/05/27 12:11:24;;;;;;;3.03;1.83;;;26.30;69.30;;;;;;5103975;28;20203;-84
2023/05/27 12:13:54;;;;;;;1.83;1.10;;;26.10;69.60;;;;;;5119292;27;20212;-85
2023/05/27 12:16:25;;;;;;;2.10;1.00;;;25.80;69.40;;;;;;5115454;28;20197;-84
2023/05/27 12:18:54;;;;;;;1.83;0.90;;;25.60;69.50;;;;;;5108142;28;20192;-83
2023/05/27 12:21:22;;;;;;;1.67;1.05;;;25.50;69.60;;;;;;5113675;28;20195;-84
2023/05/27 12:23:51;;;;;;;3.40;1.20;;;25.30;70.70;;;;;;5121259;28;20592;-82
2023/05/27 12:26:20;;;;;;;2.10;1.10;;;25.20;70.90;;;;;;5118478;27;20242;-85
2023/05/27 12:28:50;;;;;;;1.33;0.80;;;25.00;71.20;;;;;;5114602;27;20195;-85
2023/05/27 12:31:22;;;;;;;1.42;0.85;;;24.80;71.50;;;;;;5115457;27;20658;-86
2023/05/27 12:33:53;;;;;;;1.73;1.10;;;24.70;71.90;;;;;;5117806;28;20211;-85
2023/05/27 12:36:22;;;;;;;0.95;0.88;;;24.60;72.30;;;;;;5114895;27;20184;-84
2023/05/27 12:38:51;;;;;;;3.03;1.35;;;24.50;72.60;;;;;;5111917;27;20204;-85
2023/05/27 12:41:20;;;;;;;2.38;1.35;;;24.40;73.20;;;;;;5108368;27;20194;-84
2023/05/27 12:43:49;;;;;;;3.15;1.35;;;24.30;73.40;;;;;;5113756;27;20227;-84
2023/05/27 12:46:18;;;;;;;2.95;1.63;;;24.30;75.10;;;;;;5116776;27;20197;-84
2023/05/27 12:48:46;;;;;;;2.92;1.65;;;24.20;74.90;;;;;;5110992;27;20182;-86
2023/05/27 12:51:17;;;;;;;2.92;1.27;;;24.10;75.50;;;;;;5106453;28;20193;-82
2023/05/27 12:53:45;;;;;;;2.88;1.90;;;24.00;76.50;;;;;;5112748;27;20592;-83
2023/05/27 12:56:14;;;;;;;3.42;2.13;;;24.00;77.30;;;;;;5113776;27;20203;-84
2023/05/27 12:58:42;;;;;;;7.55;1.85;;;23.90;77.90;;;;;;5114068;27;20590;-85
2023/05/27 13:01:12;;;;;;;4.43;1.65;;;23.80;79.10;;;;;;5109426;27;20193;-83